Time;durP1;ratioP1;P1;durP2;ratioP2;P2;SDS_P1;SDS_P2;PMS_P1;PMS_P2;Temp;Humidity;BMP_temperature;BMP_pressure;BME280_temperature;BME280_humidity;BME280_pressure;Samples;Min_cycle;Max_cycle;Signal;HPM_P1;HPM_P2
2022/03/10 00:00:55;;;;;;;52.67;20.85;;;0.70;78.30;;;;;;4155126;28;20534;-78
2022/03/10 00:03:17;;;;;;;48.05;21.10;;;0.70;78.20;;;;;;4173145;28;20071;-77
2022/03/10 00:05:38;;;;;;;43.40;20.40;;;0.70;78.20;;;;;;4168119;28;20024;-79
2022/03/10 00:07:59;;;;;;;46.05;20.33;;;0.70;78.20;;;;;;4158077;28;20045;-78
2022/03/10 00:10:20;;;;;;;48.75;20.15;;;0.70;78.30;;;;;;4184643;28;20036;-78
2022/03/10 00:12:51;;;;;;;49.00;20.27;;;0.60;78.50;;;;;;4171635;28;20569;-77
2022/03/10 00:15:12;;;;;;;45.40;19.45;;;0.60;78.50;;;;;;4186258;28;20033;-78
2022/03/10 00:17:33;;;;;;;49.78;20.27;;;0.60;78.50;;;;;;4154438;28;20060;-78
2022/03/10 00:19:54;;;;;;;44.50;19.55;;;0.60;78.80;;;;;;4163847;28;20109;-78
2022/03/10 00:22:15;;;;;;;42.50;18.70;;;0.60;79.00;;;;;;4159395;28;20038;-79
2022/03/10 00:24:36;;;;;;;42.00;18.55;;;0.60;79.10;;;;;;4161681;28;20136;-78
2022/03/10 00:26:57;;;;;;;45.55;19.20;;;0.60;79.20;;;;;;4157931;28;20478;-78
2022/03/10 00:29:17;;;;;;;47.53;19.83;;;0.60;79.00;;;;;;4172354;28;20025;-78
2022/03/10 00:31:40;;;;;;;48.47;18.40;;;0.60;79.20;;;;;;4168660;28;20028;-78
2022/03/10 00:34:02;;;;;;;49.80;19.92;;;0.60;79.40;;;;;;4165344;28;20037;-79
2022/03/10 00:36:23;;;;;;;43.55;17.95;;;0.50;79.70;;;;;;4170089;28;20025;-78
2022/03/10 00:38:44;;;;;;;52.35;19.33;;;0.60;79.80;;;;;;4161322;28;20076;-78
2022/03/10 00:41:05;;;;;;;42.60;18.10;;;0.60;79.80;;;;;;4186347;28;20382;-78
2022/03/10 00:43:27;;;;;;;41.75;17.95;;;0.60;80.10;;;;;;4157762;28;20033;-79
2022/03/10 00:45:48;;;;;;;46.80;18.77;;;0.60;80.30;;;;;;4159618;28;20104;-79
2022/03/10 00:48:09;;;;;;;42.33;18.02;;;0.60;80.40;;;;;;4172709;28;20045;-79
2022/03/10 00:50:30;;;;;;;46.03;19.45;;;0.60;80.70;;;;;;4178981;28;20467;-78
2022/03/10 00:52:51;;;;;;;44.45;19.02;;;0.60;80.40;;;;;;4173434;28;20263;-78
2022/03/10 00:55:13;;;;;;;44.60;18.38;;;0.60;80.40;;;;;;4161279;28;20045;-78
2022/03/10 00:57:33;;;;;;;52.08;20.85;;;0.50;80.50;;;;;;4156849;28;20037;-78
2022/03/10 00:59:54;;;;;;;52.58;19.98;;;0.50;80.60;;;;;;4187109;28;20236;-78
2022/03/10 01:02:15;;;;;;;53.15;19.70;;;0.50;80.50;;;;;;4158282;28;20186;-78
2022/03/10 01:04:36;;;;;;;47.40;20.05;;;0.50;80.40;;;;;;4156531;28;20034;-78
2022/03/10 01:06:57;;;;;;;45.55;18.08;;;0.50;80.60;;;;;;4155341;28;20478;-78
2022/03/10 01:09:18;;;;;;;49.88;20.42;;;0.50;80.30;;;;;;4162884;28;20099;-78
2022/03/10 01:11:39;;;;;;;55.95;21.02;;;0.50;80.10;;;;;;4164630;28;20030;-78
2022/03/10 01:14:00;;;;;;;53.38;20.63;;;0.50;80.50;;;;;;4182472;28;20040;-78
2022/03/10 01:16:21;;;;;;;52.90;19.83;;;0.40;80.60;;;;;;4182402;28;20040;-78
2022/03/10 01:18:42;;;;;;;47.40;19.45;;;0.40;80.50;;;;;;4184424;28;20040;-78
2022/03/10 01:21:03;;;;;;;45.78;18.77;;;0.40;80.10;;;;;;4182539;28;20079;-78
2022/03/10 01:23:24;;;;;;;46.72;19.42;;;0.40;79.90;;;;;;4189418;28;20119;-78
2022/03/10 01:25:45;;;;;;;48.90;19.55;;;0.40;79.70;;;;;;4155256;28;20057;-78
2022/03/10 01:28:06;;;;;;;52.45;20.38;;;0.40;79.70;;;;;;4189753;28;20465;-78
2022/03/10 01:30:27;;;;;;;47.42;19.70;;;0.30;79.50;;;;;;4171466;28;20029;-78
2022/03/10 01:32:48;;;;;;;53.38;21.45;;;0.40;79.70;;;;;;4185538;28;20086;-78
2022/03/10 01:35:09;;;;;;;58.08;21.95;;;0.30;80.10;;;;;;4157019;28;20032;-78
2022/03/10 01:37:30;;;;;;;55.15;21.88;;;0.20;80.30;;;;;;4174388;28;20493;-78
2022/03/10 01:39:51;;;;;;;53.50;21.30;;;0.20;80.30;;;;;;4172813;28;20040;-78
2022/03/10 01:42:12;;;;;;;52.13;20.02;;;0.20;80.40;;;;;;4154220;28;20042;-79
2022/03/10 01:44:33;;;;;;;52.55;20.80;;;0.10;80.30;;;;;;4165256;28;20549;-79
2022/03/10 01:46:54;;;;;;;47.75;19.83;;;0.10;80.20;;;;;;4158120;28;20052;-78
2022/03/10 01:49:15;;;;;;;46.00;19.60;;;0.10;80.20;;;;;;4170291;28;20067;-79
2022/03/10 01:51:36;;;;;;;52.42;19.77;;;0.10;80.30;;;;;;4166507;28;20042;-79
2022/03/10 01:53:57;;;;;;;54.22;21.42;;;0.10;80.30;;;;;;4175245;28;20037;-79
2022/03/10 01:56:19;;;;;;;48.55;20.17;;;0.10;80.30;;;;;;4186086;28;20041;-78
2022/03/10 01:58:40;;;;;;;60.63;20.65;;;0.10;80.50;;;;;;4172173;28;20465;-78
2022/03/10 02:01:00;;;;;;;59.40;22.17;;;0.10;80.60;;;;;;4170038;28;20062;-78
2022/03/10 02:03:21;;;;;;;54.80;21.48;;;0.10;80.40;;;;;;4172596;28;20435;-78
2022/03/10 02:05:42;;;;;;;54.72;21.58;;;0.00;80.20;;;;;;4183362;28;20115;-78
2022/03/10 02:10:43;;;;;;;57.42;20.98;;;0.00;80.10;;;;;;4176142;28;20045;-78
2022/03/10 02:13:04;;;;;;;63.63;23.95;;;0.00;80.20;;;;;;4189950;28;20051;-78
2022/03/10 02:18:08;;;;;;;63.08;23.10;;;-0.10;80.90;;;;;;4185711;28;20404;-78
2022/03/10 02:20:29;;;;;;;58.65;23.92;;;0.00;81.30;;;;;;4184177;28;20151;-78
2022/03/10 02:22:50;;;;;;;61.55;23.58;;;-0.10;81.10;;;;;;4188045;28;20033;-78
2022/03/10 02:25:12;;;;;;;66.05;24.92;;;-0.10;80.80;;;;;;4154275;28;20124;-78
2022/03/10 02:27:33;;;;;;;63.88;23.38;;;-0.10;80.70;;;;;;4156718;28;20037;-77
2022/03/10 02:29:55;;;;;;;63.20;24.70;;;0.00;80.70;;;;;;4164317;28;20030;-78
2022/03/10 02:32:17;;;;;;;66.03;25.27;;;0.00;81.00;;;;;;4185706;28;20060;-78
2022/03/10 02:34:38;;;;;;;62.05;25.48;;;0.00;81.20;;;;;;4174403;28;20028;-78
2022/03/10 02:36:59;;;;;;;60.10;22.80;;;0.00;81.20;;;;;;4185749;28;20068;-79
2022/03/10 02:39:20;;;;;;;61.85;24.38;;;0.00;81.30;;;;;;4187260;28;20342;-78
2022/03/10 02:41:41;;;;;;;62.03;23.52;;;0.00;81.40;;;;;;4175055;28;20582;-78
2022/03/10 02:44:02;;;;;;;63.47;23.73;;;0.00;81.40;;;;;;4153329;28;20041;-78
2022/03/10 02:46:23;;;;;;;55.63;22.63;;;0.10;81.50;;;;;;4172060;28;20036;-79
2022/03/10 02:48:44;;;;;;;58.40;23.50;;;0.00;81.30;;;;;;4167376;28;20044;-79
2022/03/10 02:51:04;;;;;;;66.50;25.75;;;0.00;81.20;;;;;;4172013;28;20033;-78
2022/03/10 02:53:25;;;;;;;64.25;24.23;;;0.00;81.10;;;;;;4160542;28;20036;-78
2022/03/10 02:55:46;;;;;;;62.63;24.33;;;0.00;81.10;;;;;;4184385;28;20089;-79
2022/03/10 02:58:07;;;;;;;69.97;26.92;;;-0.10;81.00;;;;;;4144835;28;20035;-79
2022/03/10 03:00:29;;;;;;;69.60;25.20;;;-0.10;81.20;;;;;;4156066;28;20395;-78
2022/03/10 03:02:50;;;;;;;66.13;25.38;;;-0.10;81.50;;;;;;4167696;28;20537;-78
2022/03/10 03:05:14;;;;;;;73.70;27.95;;;-0.10;81.20;;;;;;4157467;28;20157;-78
2022/03/10 03:07:36;;;;;;;67.28;25.98;;;0.00;81.40;;;;;;4173713;28;20047;-78
2022/03/10 03:09:57;;;;;;;75.18;26.17;;;-0.10;81.30;;;;;;4172053;28;20042;-78
2022/03/10 03:12:18;;;;;;;74.55;26.85;;;-0.10;81.40;;;;;;4172632;28;20045;-78
2022/03/10 03:14:39;;;;;;;86.28;29.15;;;-0.10;81.90;;;;;;4155444;28;20034;-78
2022/03/10 03:17:00;;;;;;;73.65;27.45;;;0.00;82.30;;;;;;4170640;28;20108;-78
2022/03/10 03:19:21;;;;;;;69.05;26.10;;;0.00;82.10;;;;;;4184297;28;20048;-77
2022/03/10 03:21:41;;;;;;;80.10;29.05;;;0.00;82.10;;;;;;4183776;28;20335;-78
2022/03/10 03:24:03;;;;;;;76.43;27.90;;;0.00;82.30;;;;;;4169077;28;20486;-77
2022/03/10 03:26:23;;;;;;;79.95;29.48;;;0.10;82.30;;;;;;4183409;28;20032;-78
2022/03/10 03:28:44;;;;;;;65.40;25.85;;;0.10;82.10;;;;;;4184465;28;20533;-78
2022/03/10 03:31:05;;;;;;;72.22;27.42;;;0.10;81.90;;;;;;4158706;28;20040;-78
2022/03/10 03:33:26;;;;;;;67.47;26.65;;;0.10;82.20;;;;;;4171942;28;20073;-78
2022/03/10 03:35:47;;;;;;;83.22;26.25;;;0.10;82.30;;;;;;4157161;28;20037;-79
2022/03/10 03:38:08;;;;;;;64.10;25.88;;;0.10;82.40;;;;;;4156179;28;20616;-78
2022/03/10 03:40:29;;;;;;;64.75;26.40;;;0.20;82.30;;;;;;4168237;28;20097;-78
2022/03/10 03:42:50;;;;;;;66.70;25.15;;;0.20;82.20;;;;;;4159850;28;20079;-78
2022/03/10 03:45:11;;;;;;;67.35;24.85;;;0.20;82.10;;;;;;4165362;28;20884;-78
2022/03/10 03:47:31;;;;;;;63.67;24.45;;;0.20;82.10;;;;;;4185168;28;20045;-78
2022/03/10 03:49:52;;;;;;;62.22;25.10;;;0.20;82.10;;;;;;4172665;28;20548;-78
2022/03/10 03:52:13;;;;;;;65.55;24.92;;;0.30;82.10;;;;;;4172539;28;20037;-78
2022/03/10 03:54:34;;;;;;;70.78;25.02;;;0.30;82.10;;;;;;4155224;28;20036;-78
2022/03/10 03:56:55;;;;;;;61.00;24.15;;;0.30;82.10;;;;;;4169499;28;20044;-78
2022/03/10 03:59:16;;;;;;;65.75;24.13;;;0.30;82.20;;;;;;4186851;28;20032;-78
2022/03/10 04:01:37;;;;;;;63.55;24.50;;;0.30;82.20;;;;;;4167721;28;20558;-78
2022/03/10 04:03:58;;;;;;;66.38;25.40;;;0.40;82.30;;;;;;4171496;28;20032;-79
2022/03/10 04:06:19;;;;;;;67.45;24.88;;;0.40;82.30;;;;;;4153157;28;20034;-79
2022/03/10 04:08:39;;;;;;;68.80;25.65;;;0.40;82.30;;;;;;4181105;28;20074;-79
2022/03/10 04:11:00;;;;;;;62.85;25.13;;;0.40;82.30;;;;;;4160640;28;20029;-79
2022/03/10 04:13:22;;;;;;;63.08;25.40;;;0.40;82.60;;;;;;4145661;28;20046;-79
2022/03/10 04:15:42;;;;;;;61.78;23.45;;;0.40;82.70;;;;;;4186408;28;20102;-78
2022/03/10 04:18:03;;;;;;;62.10;25.65;;;0.40;82.80;;;;;;4172924;28;20047;-79
2022/03/10 04:20:25;;;;;;;75.70;25.40;;;0.40;83.10;;;;;;4189194;28;20120;-78
2022/03/10 04:22:46;;;;;;;71.20;26.95;;;0.40;83.40;;;;;;4177055;28;20041;-79
2022/03/10 04:25:08;;;;;;;67.50;26.15;;;0.40;83.30;;;;;;4178265;28;20340;-78
2022/03/10 04:27:29;;;;;;;70.00;25.02;;;0.40;83.40;;;;;;4187901;28;20035;-79
2022/03/10 04:29:50;;;;;;;75.28;27.05;;;0.40;83.30;;;;;;4168931;28;20453;-78
2022/03/10 04:32:11;;;;;;;59.55;25.35;;;0.40;83.10;;;;;;4185621;28;20139;-78
2022/03/10 04:34:32;;;;;;;60.63;24.20;;;0.40;82.90;;;;;;4177972;28;20029;-77
2022/03/10 04:36:52;;;;;;;68.07;24.35;;;0.40;83.00;;;;;;4187081;28;20048;-78
2022/03/10 04:39:13;;;;;;;61.63;24.10;;;0.30;82.90;;;;;;4188056;28;20108;-78
2022/03/10 04:41:34;;;;;;;64.72;25.23;;;0.30;82.80;;;;;;4176472;28;20036;-78
2022/03/10 04:43:55;;;;;;;66.03;25.73;;;0.40;82.70;;;;;;4176910;28;20041;-78
2022/03/10 04:46:16;;;;;;;62.45;23.80;;;0.30;82.60;;;;;;4172111;28;20029;-77
2022/03/10 04:48:37;;;;;;;61.17;24.80;;;0.30;82.70;;;;;;4173351;28;20025;-77
2022/03/10 04:50:58;;;;;;;66.95;25.80;;;0.30;82.70;;;;;;4163296;28;20037;-78
2022/03/10 04:53:19;;;;;;;58.67;24.50;;;0.30;83.60;;;;;;4163308;28;20058;-79
2022/03/10 04:55:41;;;;;;;62.92;24.50;;;0.30;82.80;;;;;;4184946;28;20032;-79
2022/03/10 04:58:02;;;;;;;54.70;22.85;;;0.30;83.00;;;;;;4189069;28;20159;-79
2022/03/10 05:00:22;;;;;;;62.25;22.85;;;0.20;82.70;;;;;;4170598;28;20120;-79
2022/03/10 05:02:43;;;;;;;57.22;23.70;;;0.20;82.80;;;;;;4186101;28;20060;-79
2022/03/10 05:05:12;;;;;;;56.33;22.98;;;0.20;82.70;;;;;;4160328;28;20061;-78
2022/03/10 05:07:33;;;;;;;61.40;23.30;;;0.20;82.60;;;;;;4187297;28;20545;-79
2022/03/10 05:09:54;;;;;;;63.47;24.15;;;0.20;82.60;;;;;;4172452;28;20068;-79
2022/03/10 05:12:15;;;;;;;58.60;21.75;;;0.20;82.60;;;;;;4170178;28;20563;-78
2022/03/10 05:14:36;;;;;;;53.72;22.40;;;0.10;82.40;;;;;;4158819;28;20052;-79
2022/03/10 05:16:57;;;;;;;53.47;21.83;;;0.10;82.50;;;;;;4169787;28;20033;-79
2022/03/10 05:19:18;;;;;;;57.88;23.17;;;0.10;82.50;;;;;;4171818;28;20029;-79
2022/03/10 05:21:39;;;;;;;58.33;22.92;;;0.10;82.50;;;;;;4170259;28;20051;-79
2022/03/10 05:24:00;;;;;;;60.08;22.42;;;0.10;82.60;;;;;;4159376;28;20061;-78
2022/03/10 05:26:21;;;;;;;55.25;21.83;;;0.10;82.50;;;;;;4168273;28;20109;-79
2022/03/10 05:28:42;;;;;;;57.42;22.40;;;0.20;82.60;;;;;;4174119;28;20028;-78
2022/03/10 05:31:03;;;;;;;59.13;22.58;;;0.00;82.40;;;;;;4172383;28;20457;-79
2022/03/10 05:33:23;;;;;;;53.83;22.65;;;0.00;82.40;;;;;;4168800;28;20131;-78
2022/03/10 05:35:44;;;;;;;57.55;23.27;;;0.00;82.40;;;;;;4182597;28;20433;-78
2022/03/10 05:38:05;;;;;;;57.65;22.15;;;0.00;82.40;;;;;;4184054;28;20461;-78
2022/03/10 05:40:26;;;;;;;62.03;21.70;;;0.00;82.60;;;;;;4174039;28;20021;-78
2022/03/10 05:42:48;;;;;;;58.83;24.02;;;0.00;82.60;;;;;;4160358;28;20025;-78
2022/03/10 05:45:09;;;;;;;55.58;22.63;;;0.00;82.60;;;;;;4184690;28;20083;-79
2022/03/10 05:47:30;;;;;;;56.35;21.75;;;-0.10;82.70;;;;;;4169275;28;20481;-78
2022/03/10 05:49:51;;;;;;;55.67;21.95;;;-0.10;82.80;;;;;;4189285;28;20028;-78
2022/03/10 05:52:12;;;;;;;56.55;21.58;;;-0.10;82.90;;;;;;4179811;28;20103;-78
2022/03/10 05:54:33;;;;;;;58.42;22.67;;;-0.10;82.90;;;;;;4156546;28;20386;-78
2022/03/10 05:56:53;;;;;;;56.03;22.55;;;-0.10;82.90;;;;;;4167997;28;20076;-78
2022/03/10 05:59:14;;;;;;;55.17;20.73;;;-0.10;83.10;;;;;;4187256;28;20109;-78
2022/03/10 06:01:35;;;;;;;59.95;22.60;;;-0.10;83.30;;;;;;4181645;28;20048;-78
2022/03/10 06:03:56;;;;;;;49.13;19.67;;;-0.10;83.40;;;;;;4179685;28;20036;-78
2022/03/10 06:06:17;;;;;;;56.25;20.98;;;-0.10;83.30;;;;;;4183539;28;20037;-78
2022/03/10 06:08:38;;;;;;;48.83;20.05;;;-0.10;83.20;;;;;;4174493;28;20041;-79
2022/03/10 06:11:01;;;;;;;50.90;19.67;;;-0.10;83.80;;;;;;4158618;28;20126;-78
2022/03/10 06:13:22;;;;;;;53.65;21.63;;;-0.10;82.90;;;;;;4176103;28;20045;-79
2022/03/10 06:15:43;;;;;;;56.17;22.10;;;-0.10;82.90;;;;;;4164626;28;20033;-79
2022/03/10 06:18:04;;;;;;;56.88;20.55;;;-0.10;82.80;;;;;;4187183;28;20409;-78
2022/03/10 06:20:25;;;;;;;51.25;20.67;;;-0.10;83.40;;;;;;4189820;28;20029;-78
2022/03/10 06:22:46;;;;;;;59.97;21.52;;;-0.10;82.80;;;;;;4188559;28;20174;-78
2022/03/10 06:25:09;;;;;;;50.33;21.00;;;0.00;83.00;;;;;;4173388;28;20043;-78
2022/03/10 06:27:30;;;;;;;56.05;22.35;;;0.00;83.20;;;;;;4171108;28;20510;-78
2022/03/10 06:29:54;;;;;;;48.90;19.90;;;0.00;83.40;;;;;;4184767;28;20032;-78
2022/03/10 06:32:18;;;;;;;53.85;21.67;;;0.00;83.50;;;;;;4167472;28;20395;-78
2022/03/10 06:34:39;;;;;;;55.40;21.33;;;0.10;83.60;;;;;;4188429;28;20033;-78
2022/03/10 06:37:02;;;;;;;53.80;21.63;;;0.10;83.60;;;;;;4186361;28;20037;-78
2022/03/10 06:39:23;;;;;;;53.47;20.88;;;0.10;83.60;;;;;;4173114;28;20405;-78
2022/03/10 06:41:44;;;;;;;54.63;20.52;;;0.10;83.60;;;;;;4189825;28;20072;-78
2022/03/10 06:44:05;;;;;;;54.95;22.55;;;0.20;83.70;;;;;;4170999;28;20029;-78
2022/03/10 06:46:26;;;;;;;58.42;23.05;;;0.20;83.70;;;;;;4159369;28;20051;-78
2022/03/10 06:48:47;;;;;;;53.45;21.10;;;0.30;83.80;;;;;;4168488;28;20501;-78
2022/03/10 06:51:08;;;;;;;56.08;21.02;;;0.40;83.90;;;;;;4162210;28;20033;-78
2022/03/10 06:53:29;;;;;;;57.67;21.27;;;0.40;83.90;;;;;;4183401;28;20203;-78
2022/03/10 06:55:50;;;;;;;48.67;21.10;;;0.40;83.90;;;;;;4172153;28;20741;-78
2022/03/10 06:58:10;;;;;;;51.05;20.52;;;0.50;83.90;;;;;;4173746;28;20048;-78
2022/03/10 07:00:32;;;;;;;48.15;19.92;;;0.50;84.00;;;;;;4166098;28;20025;-78
2022/03/10 07:02:53;;;;;;;55.28;20.85;;;0.60;84.00;;;;;;4172508;28;20525;-79
2022/03/10 07:05:14;;;;;;;49.58;20.42;;;0.70;84.10;;;;;;4147078;28;20084;-79
2022/03/10 07:07:35;;;;;;;50.38;22.13;;;0.70;84.10;;;;;;4185038;28;20461;-78
2022/03/10 07:09:56;;;;;;;56.17;22.02;;;0.80;84.30;;;;;;4169970;28;20506;-78
2022/03/10 07:12:17;;;;;;;54.88;22.30;;;0.80;84.20;;;;;;4171721;28;20033;-79
2022/03/10 07:14:38;;;;;;;55.33;22.40;;;0.90;84.30;;;;;;4156779;28;20030;-79
2022/03/10 07:16:59;;;;;;;55.53;22.55;;;1.00;84.40;;;;;;4183967;28;20064;-79
2022/03/10 07:19:20;;;;;;;51.75;22.10;;;1.00;84.40;;;;;;4158336;28;20033;-78
2022/03/10 07:21:41;;;;;;;53.75;23.08;;;1.10;84.30;;;;;;4169834;28;20056;-79
2022/03/10 07:24:02;;;;;;;50.88;21.10;;;1.10;84.30;;;;;;4172249;28;20033;-79
2022/03/10 07:26:23;;;;;;;63.08;21.95;;;1.20;84.40;;;;;;4186338;28;20039;-79
2022/03/10 07:28:44;;;;;;;54.95;21.52;;;1.30;84.50;;;;;;4162272;28;20417;-79
2022/03/10 07:31:06;;;;;;;54.20;21.55;;;1.30;84.50;;;;;;4187512;28;20357;-79
2022/03/10 07:33:28;;;;;;;56.63;23.92;;;1.40;84.60;;;;;;4172082;28;20626;-79
2022/03/10 07:35:49;;;;;;;51.00;21.60;;;1.40;84.40;;;;;;4178620;28;20235;-79
2022/03/10 07:38:11;;;;;;;50.55;22.42;;;1.50;84.50;;;;;;4178324;28;20118;-79
2022/03/10 07:40:31;;;;;;;49.78;20.55;;;1.60;84.50;;;;;;4158182;28;20101;-79
2022/03/10 07:42:52;;;;;;;54.78;22.92;;;1.70;84.50;;;;;;4187160;28;20058;-79
2022/03/10 07:45:13;;;;;;;63.25;21.65;;;1.70;84.60;;;;;;4145023;28;20031;-79
2022/03/10 07:47:35;;;;;;;52.88;22.50;;;1.90;84.60;;;;;;4158795;28;20116;-79
2022/03/10 07:49:57;;;;;;;53.35;22.13;;;1.90;84.60;;;;;;4175672;28;20041;-79
2022/03/10 07:52:18;;;;;;;49.80;22.80;;;1.90;84.50;;;;;;4190662;28;20109;-79
2022/03/10 07:54:39;;;;;;;53.42;21.77;;;2.00;84.30;;;;;;4189422;28;20033;-79
2022/03/10 07:57:00;;;;;;;54.67;23.02;;;2.10;84.40;;;;;;4173109;28;20554;-79
2022/03/10 07:59:21;;;;;;;52.88;22.50;;;2.10;84.30;;;;;;4184155;28;20036;-79
2022/03/10 08:01:42;;;;;;;54.28;23.42;;;2.30;84.30;;;;;;4188455;28;20495;-79
2022/03/10 08:04:03;;;;;;;52.58;22.38;;;2.30;84.40;;;;;;4160318;28;20103;-79
2022/03/10 08:06:26;;;;;;;50.40;22.63;;;2.40;84.30;;;;;;4190881;28;20349;-79
2022/03/10 08:08:46;;;;;;;53.65;23.58;;;2.50;84.20;;;;;;4190471;28;20112;-79
2022/03/10 08:11:08;;;;;;;56.67;22.70;;;2.60;84.20;;;;;;4176296;28;20117;-80
2022/03/10 08:13:31;;;;;;;55.40;21.70;;;2.70;84.00;;;;;;4175177;28;20123;-79
2022/03/10 08:15:53;;;;;;;56.35;21.58;;;2.70;83.70;;;;;;4167835;28;20048;-79
2022/03/10 08:18:16;;;;;;;50.50;22.15;;;2.80;83.60;;;;;;4177493;28;20609;-79
2022/03/10 08:20:39;;;;;;;48.67;22.58;;;2.90;83.50;;;;;;4153502;28;20025;-79
2022/03/10 08:23:02;;;;;;;47.78;21.42;;;3.00;83.50;;;;;;4162628;28;20040;-79
2022/03/10 08:25:30;;;;;;;50.70;21.77;;;3.10;82.60;;;;;;4160828;28;20422;-79
2022/03/10 08:27:52;;;;;;;44.15;20.63;;;3.20;83.10;;;;;;4182833;28;20267;-79
2022/03/10 08:30:40;;;;;;;53.05;22.33;;;3.30;82.80;;;;;;4176390;28;20045;-80
2022/03/10 08:33:01;;;;;;;50.03;21.50;;;3.40;82.50;;;;;;4180819;28;20045;-79
2022/03/10 08:35:23;;;;;;;48.70;21.58;;;3.50;82.30;;;;;;4163405;28;20595;-79
2022/03/10 08:37:45;;;;;;;49.97;21.33;;;3.60;82.00;;;;;;4163110;28;20037;-78
2022/03/10 08:40:07;;;;;;;53.20;20.85;;;3.60;81.60;;;;;;4178996;28;20055;-79
2022/03/10 08:42:28;;;;;;;42.53;18.90;;;3.70;81.20;;;;;;4190278;28;20398;-79
2022/03/10 08:44:49;;;;;;;44.95;21.52;;;3.80;81.00;;;;;;4173842;28;20033;-79
2022/03/10 08:47:10;;;;;;;40.63;19.27;;;3.90;80.70;;;;;;4176243;28;20116;-79
2022/03/10 08:49:30;;;;;;;45.13;20.75;;;4.00;80.50;;;;;;4171817;28;20624;-79
2022/03/10 08:51:54;;;;;;;50.70;20.35;;;4.00;80.20;;;;;;4176189;28;20044;-79
2022/03/10 08:54:15;;;;;;;41.85;19.17;;;4.10;79.80;;;;;;4177673;28;20044;-79
2022/03/10 08:56:36;;;;;;;43.13;19.33;;;4.20;79.50;;;;;;4163269;28;20565;-79
2022/03/10 08:58:57;;;;;;;42.67;19.55;;;4.20;79.30;;;;;;4173178;28;20498;-79
2022/03/10 09:01:18;;;;;;;41.50;19.48;;;4.30;79.30;;;;;;4161125;28;20038;-80
2022/03/10 09:03:39;;;;;;;39.58;18.63;;;4.30;79.10;;;;;;4173766;28;20135;-80
2022/03/10 09:06:00;;;;;;;35.53;17.42;;;4.40;79.00;;;;;;4176429;28;20120;-80
2022/03/10 09:08:21;;;;;;;40.28;18.48;;;4.50;78.70;;;;;;4191541;28;20029;-80
2022/03/10 09:10:42;;;;;;;40.10;19.08;;;4.50;78.30;;;;;;4164082;28;20034;-80
2022/03/10 09:13:04;;;;;;;38.95;18.15;;;4.60;77.90;;;;;;4191278;28;20110;-80
2022/03/10 09:15:27;;;;;;;36.97;16.83;;;4.60;77.40;;;;;;4158908;28;20051;-79
2022/03/10 09:17:48;;;;;;;37.97;18.05;;;4.70;77.20;;;;;;4175359;28;20036;-80
2022/03/10 09:20:11;;;;;;;42.20;18.95;;;4.70;77.10;;;;;;4170071;28;20029;-80
2022/03/10 09:22:32;;;;;;;42.08;18.15;;;4.80;76.80;;;;;;4189695;28;20035;-79
2022/03/10 09:24:53;;;;;;;40.63;18.10;;;4.80;76.60;;;;;;4176723;28;20639;-79
2022/03/10 09:27:14;;;;;;;35.00;16.90;;;4.80;76.20;;;;;;4174165;28;20063;-79
2022/03/10 09:29:35;;;;;;;40.42;17.92;;;4.90;76.00;;;;;;4175249;28;20183;-79
2022/03/10 09:31:56;;;;;;;39.72;18.75;;;5.00;75.70;;;;;;4176482;28;20033;-79
2022/03/10 09:34:17;;;;;;;34.58;16.48;;;5.10;75.50;;;;;;4162391;28;20087;-79
2022/03/10 09:36:39;;;;;;;37.75;18.42;;;5.10;75.10;;;;;;4172396;28;20350;-79
2022/03/10 09:39:01;;;;;;;39.60;17.20;;;5.10;75.00;;;;;;4187079;28;20037;-79
2022/03/10 09:41:25;;;;;;;37.78;17.13;;;5.20;74.80;;;;;;4169389;28;20454;-80
2022/03/10 09:43:47;;;;;;;32.78;15.15;;;5.30;74.80;;;;;;4164924;28;20088;-79
2022/03/10 09:46:28;;;;;;;38.03;16.55;;;5.40;74.70;;;;;;4173919;28;20037;-79
2022/03/10 09:48:54;;;;;;;35.10;17.20;;;5.40;73.90;;;;;;4177148;28;20425;-80
2022/03/10 09:51:25;;;;;;;36.10;16.65;;;5.50;73.40;;;;;;4179419;28;20053;-80
2022/03/10 09:53:46;;;;;;;36.83;18.02;;;5.60;73.10;;;;;;4180853;28;20462;-80
2022/03/10 09:56:27;;;;;;;37.28;16.75;;;5.70;72.90;;;;;;4175955;28;20671;-80
2022/03/10 09:58:49;;;;;;;34.95;16.73;;;5.80;72.50;;;;;;4161636;28;20056;-80
2022/03/10 10:01:44;;;;;;;38.65;17.58;;;5.80;72.50;;;;;;4177868;28;20107;-80
2022/03/10 10:04:06;;;;;;;31.75;16.48;;;5.90;72.00;;;;;;4187183;28;20037;-80
2022/03/10 10:06:28;;;;;;;35.72;16.38;;;5.90;71.80;;;;;;4172339;28;20028;-79
2022/03/10 10:08:56;;;;;;;37.35;16.27;;;6.00;71.10;;;;;;4173948;28;20045;-79
2022/03/10 10:11:34;;;;;;;34.58;15.90;;;6.10;70.60;;;;;;4171552;28;20029;-80
2022/03/10 10:13:56;;;;;;;31.80;15.68;;;6.10;70.20;;;;;;4164882;28;20049;-80
2022/03/10 10:16:19;;;;;;;33.28;16.20;;;6.10;70.10;;;;;;4171193;28;20052;-80
2022/03/10 10:18:41;;;;;;;35.35;16.70;;;6.20;70.40;;;;;;4178280;28;20526;-80
2022/03/10 10:21:12;;;;;;;44.80;17.92;;;6.20;69.90;;;;;;4177746;28;20037;-80
2022/03/10 10:23:38;;;;;;;38.58;17.50;;;6.30;69.80;;;;;;4175634;28;20508;-80
2022/03/10 10:26:28;;;;;;;40.40;17.20;;;6.30;69.40;;;;;;4162494;28;20048;-80
2022/03/10 10:29:00;;;;;;;34.83;16.75;;;6.30;68.70;;;;;;4173859;28;20493;-80
2022/03/10 10:31:24;;;;;;;39.30;16.95;;;6.30;68.70;;;;;;4163276;28;20182;-80
2022/03/10 10:34:10;;;;;;;37.00;16.60;;;6.30;68.60;;;;;;4161137;28;20048;-80
2022/03/10 10:36:32;;;;;;;41.15;17.63;;;6.30;68.60;;;;;;4173786;28;20032;-80
2022/03/10 10:39:10;;;;;;;39.03;16.27;;;6.30;68.90;;;;;;4185387;28;20037;-80
2022/03/10 10:41:32;;;;;;;35.55;17.55;;;6.30;68.90;;;;;;4178876;28;20457;-80
2022/03/10 10:44:00;;;;;;;37.58;16.77;;;6.30;68.70;;;;;;4153681;28;20562;-80
2022/03/10 10:46:33;;;;;;;38.60;17.42;;;6.30;68.70;;;;;;4187726;28;20048;-79
2022/03/10 10:49:20;;;;;;;38.83;16.80;;;6.40;68.50;;;;;;4177157;28;20450;-80
2022/03/10 10:51:41;;;;;;;38.38;16.85;;;6.30;67.70;;;;;;4171559;28;20453;-80
2022/03/10 10:54:09;;;;;;;31.10;14.73;;;6.30;67.60;;;;;;4175439;28;20037;-80
2022/03/10 10:56:33;;;;;;;36.72;16.65;;;6.30;67.80;;;;;;4188242;28;20504;-80
2022/03/10 10:58:58;;;;;;;35.53;16.15;;;6.30;68.00;;;;;;4177010;28;20037;-80
2022/03/10 11:01:28;;;;;;;35.97;15.45;;;6.30;68.10;;;;;;4160560;28;20042;-80
2022/03/10 11:03:49;;;;;;;32.60;15.95;;;6.30;68.50;;;;;;4173765;28;20111;-80
2022/03/10 11:06:10;;;;;;;34.17;16.13;;;6.30;68.40;;;;;;4175324;28;20037;-80
2022/03/10 11:08:34;;;;;;;31.33;15.02;;;6.30;68.30;;;;;;4153543;28;20034;-80
2022/03/10 11:10:55;;;;;;;32.75;14.43;;;6.30;68.50;;;;;;4189212;28;20047;-80
2022/03/10 11:13:16;;;;;;;38.83;16.60;;;6.30;68.80;;;;;;4176268;28;20045;-79
2022/03/10 11:15:37;;;;;;;35.10;16.33;;;6.40;68.70;;;;;;4173021;28;20354;-80
2022/03/10 11:18:03;;;;;;;33.67;15.88;;;6.40;68.70;;;;;;4155654;28;20474;-79
2022/03/10 11:20:49;;;;;;;32.45;14.77;;;6.40;68.70;;;;;;4164317;28;20043;-80
2022/03/10 11:23:51;;;;;;;37.53;15.35;;;6.50;68.40;;;;;;4171668;28;20370;-80
2022/03/10 11:26:36;;;;;;;32.88;15.90;;;6.50;68.30;;;;;;4175887;28;20039;-80
2022/03/10 11:29:01;;;;;;;33.60;15.73;;;6.50;68.20;;;;;;4176656;28;20046;-80
2022/03/10 11:31:23;;;;;;;36.08;16.23;;;6.60;67.90;;;;;;4186867;28;20040;-80
2022/03/10 11:33:45;;;;;;;36.57;16.63;;;6.60;67.60;;;;;;4163371;28;20463;-80
2022/03/10 11:36:32;;;;;;;34.47;15.93;;;6.60;67.70;;;;;;4168795;28;20088;-81
2022/03/10 11:39:06;;;;;;;36.20;17.15;;;6.60;66.80;;;;;;4182911;28;20044;-80
2022/03/10 11:41:29;;;;;;;32.13;15.05;;;6.60;66.70;;;;;;4179895;28;20479;-80
2022/03/10 11:44:00;;;;;;;30.80;15.00;;;6.60;66.70;;;;;;4173061;28;20489;-80
2022/03/10 11:46:23;;;;;;;34.25;15.35;;;6.70;66.80;;;;;;4164789;28;20029;-80
2022/03/10 11:48:44;;;;;;;31.10;15.70;;;6.70;66.80;;;;;;4158202;28;20550;-80
2022/03/10 11:51:16;;;;;;;34.03;15.30;;;6.70;67.60;;;;;;4177597;28;20037;-80
2022/03/10 11:53:55;;;;;;;32.65;15.18;;;6.70;66.90;;;;;;4188764;28;20080;-80
2022/03/10 11:56:17;;;;;;;32.38;15.57;;;6.80;66.70;;;;;;4163794;28;20086;-80
2022/03/10 11:58:38;;;;;;;29.23;15.27;;;6.80;66.60;;;;;;4163341;28;20068;-79
2022/03/10 12:00:59;;;;;;;33.70;15.27;;;6.80;66.20;;;;;;4186279;28;20067;-80
2022/03/10 12:03:30;;;;;;;34.45;15.40;;;6.80;66.20;;;;;;4171145;28;20038;-80
2022/03/10 12:06:01;;;;;;;32.17;15.50;;;6.80;66.00;;;;;;4174161;28;20033;-80
2022/03/10 12:08:30;;;;;;;37.30;16.30;;;6.90;66.70;;;;;;4188249;28;20033;-80
2022/03/10 12:10:51;;;;;;;33.03;15.52;;;6.80;65.00;;;;;;4183602;28;20078;-80
2022/03/10 12:13:23;;;;;;;33.35;15.73;;;6.80;65.10;;;;;;4170716;28;20041;-80
2022/03/10 12:15:48;;;;;;;35.83;15.48;;;6.80;65.20;;;;;;4175140;28;20115;-80
2022/03/10 12:18:15;;;;;;;32.88;15.10;;;6.80;65.50;;;;;;4171142;28;20120;-80